createdAt,value
2023-04-15T00:01:45.468Z,62.58
2023-04-15T00:04:12.040Z,62.58
2023-04-15T00:06:39.715Z,62.58
2023-04-15T00:09:06.074Z,62.47
2023-04-15T00:11:32.419Z,62.67
2023-04-15T00:13:59.320Z,62.79
2023-04-15T00:16:25.879Z,62.77
2023-04-15T00:18:52.464Z,62.61
2023-04-15T00:21:18.912Z,62.66
2023-04-15T00:23:45.357Z,62.71
2023-04-15T00:26:13.438Z,62.60
2023-04-15T00:28:39.995Z,62.69
2023-04-15T00:31:08.883Z,62.69
2023-04-15T00:33:36.762Z,62.80
2023-04-15T00:36:03.873Z,62.58
2023-04-15T00:38:30.304Z,62.58
2023-04-15T00:40:56.763Z,62.60
2023-04-15T00:43:23.190Z,62.49
2023-04-15T00:45:50.059Z,62.52
2023-04-15T00:48:16.525Z,62.69
2023-04-15T00:50:42.904Z,62.39
2023-04-15T00:53:09.304Z,62.58
2023-04-15T00:55:36.283Z,62.43
2023-04-15T00:58:02.720Z,62.48
2023-04-15T01:00:30.388Z,62.35
2023-04-15T01:02:57.084Z,62.46
2023-04-15T01:05:23.764Z,62.38
2023-04-15T01:07:50.187Z,62.20
2023-04-15T01:10:16.640Z,62.50
2023-04-15T01:12:43.327Z,62.48
2023-04-15T01:15:11.046Z,62.42
2023-04-15T01:17:37.590Z,62.48
2023-04-15T01:20:05.314Z,62.57
2023-04-15T01:22:31.716Z,62.58
2023-04-15T01:25:02.344Z,62.67
2023-04-15T01:27:28.814Z,62.49
2023-04-15T01:29:55.202Z,62.50
2023-04-15T01:32:23.645Z,62.46
2023-04-15T01:34:50.064Z,62.51
2023-04-15T01:37:16.455Z,62.47
2023-04-15T01:39:42.808Z,62.39
2023-04-15T01:42:09.264Z,62.44
2023-04-15T01:44:35.721Z,62.28
2023-04-15T01:47:02.243Z,62.13
2023-04-15T01:49:29.113Z,62.00
2023-04-15T01:51:55.886Z,61.83
2023-04-15T01:54:22.604Z,61.59
2023-04-15T01:56:49.003Z,61.56
2023-04-15T01:59:15.447Z,61.47
2023-04-15T02:01:42.176Z,61.19
2023-04-15T02:04:16.353Z,61.28
2023-04-15T02:06:46.338Z,61.13
2023-04-15T02:09:12.928Z,61.17
2023-04-15T02:11:39.540Z,61.20
2023-04-15T02:14:06.417Z,61.15
2023-04-15T02:16:33.370Z,61.31
2023-04-15T02:19:00.142Z,61.33
2023-04-15T02:21:27.195Z,61.26
2023-04-15T02:23:57.211Z,61.22
2023-04-15T02:26:25.100Z,61.19
2023-04-15T02:28:51.536Z,61.20
2023-04-15T02:31:18.151Z,61.07
2023-04-15T02:33:44.605Z,61.22
2023-04-15T02:36:13.479Z,61.21
2023-04-15T02:38:43.336Z,61.32
2023-04-15T02:41:10.478Z,61.28
2023-04-15T02:43:37.077Z,61.27
2023-04-15T02:46:03.706Z,61.44
2023-04-15T02:48:30.140Z,61.33
2023-04-15T02:51:11.097Z,61.41
2023-04-15T02:53:37.439Z,61.42
2023-04-15T02:56:03.958Z,61.23
2023-04-15T02:58:30.844Z,61.40
2023-04-15T03:00:57.651Z,61.49
2023-04-15T03:03:24.206Z,61.47
2023-04-15T03:05:50.705Z,61.15
2023-04-15T03:08:17.231Z,61.45
2023-04-15T03:10:43.589Z,61.45
2023-04-15T03:13:10.088Z,61.25
2023-04-15T03:15:36.504Z,61.39
2023-04-15T03:18:03.045Z,61.23
2023-04-15T03:20:29.520Z,61.29
2023-04-15T03:22:55.931Z,61.42
2023-04-15T03:25:22.345Z,61.44
2023-04-15T03:27:48.684Z,61.39
2023-04-15T03:30:15.041Z,61.48
2023-04-15T03:32:41.538Z,61.41
2023-04-15T03:35:08.312Z,61.44
2023-04-15T03:37:34.787Z,61.47
2023-04-15T03:40:01.452Z,61.32
2023-04-15T03:42:27.839Z,61.39
2023-04-15T03:44:54.220Z,61.46
2023-04-15T03:47:21.014Z,61.39
2023-04-15T03:49:47.441Z,61.38
2023-04-15T03:52:14.035Z,61.53
2023-04-15T03:54:41.924Z,61.50
2023-04-15T03:57:08.379Z,61.30
2023-04-15T03:59:34.780Z,61.28
2023-04-15T04:02:01.426Z,61.34
2023-04-15T04:04:28.021Z,61.29
2023-04-15T04:06:55.554Z,61.33
2023-04-15T04:09:21.980Z,61.33
2023-04-15T04:11:48.406Z,61.25
2023-04-15T04:14:14.822Z,61.23
2023-04-15T04:16:42.466Z,61.18
2023-04-15T04:19:08.933Z,61.36
2023-04-15T04:21:36.504Z,61.24
2023-04-15T04:24:02.985Z,61.28
2023-04-15T04:26:29.409Z,61.22
2023-04-15T04:28:57.181Z,61.22
2023-04-15T04:31:23.670Z,61.27
2023-04-15T04:33:50.061Z,61.36
2023-04-15T04:36:16.500Z,61.26
2023-04-15T04:38:43.017Z,61.27
2023-04-15T04:41:09.429Z,61.12
2023-04-15T04:43:35.967Z,61.27
2023-04-15T04:46:02.990Z,61.18
2023-04-15T04:48:29.469Z,61.28
2023-04-15T04:50:56.054Z,61.17
2023-04-15T04:53:22.488Z,61.22
2023-04-15T04:55:48.888Z,61.23
2023-04-15T04:58:15.302Z,61.20
2023-04-15T05:00:42.181Z,61.14
2023-04-15T05:03:08.886Z,61.25
2023-04-15T05:05:37.014Z,61.08
2023-04-15T05:08:03.470Z,61.18
2023-04-15T05:10:29.875Z,61.21
2023-04-15T05:12:58.288Z,61.09
2023-04-15T05:15:25.789Z,61.13
2023-04-15T05:17:52.271Z,61.13
2023-04-15T05:20:18.695Z,61.07
2023-04-15T05:22:45.134Z,60.84
2023-04-15T05:25:12.084Z,61.01
2023-04-15T05:27:38.637Z,61.14
2023-04-15T05:30:05.563Z,61.47
2023-04-15T05:32:32.069Z,61.57
2023-04-15T05:34:58.486Z,61.91
2023-04-15T05:37:24.911Z,61.98
2023-04-15T05:39:51.340Z,62.12
2023-04-15T05:42:17.802Z,61.96
2023-04-15T05:44:44.284Z,61.73
2023-04-15T05:47:10.975Z,61.28
2023-04-15T05:49:37.447Z,61.02
2023-04-15T05:52:03.871Z,60.86
2023-04-15T05:54:30.405Z,60.74
2023-04-15T05:56:57.731Z,61.02
2023-04-15T05:59:24.222Z,60.96
2023-04-15T06:01:53.633Z,61.25
2023-04-15T06:04:20.201Z,61.45
2023-04-15T06:06:47.234Z,61.46
2023-04-15T06:09:13.639Z,61.28
2023-04-15T06:11:41.410Z,61.31
2023-04-15T06:14:08.191Z,61.28
2023-04-15T06:16:36.580Z,61.05
2023-04-15T06:19:03.478Z,61.09
2023-04-15T06:21:30.006Z,61.06
2023-04-15T06:23:56.811Z,61.42
2023-04-15T06:26:23.307Z,61.56
2023-04-15T06:28:49.794Z,62.88
2023-04-15T06:31:16.241Z,63.66
2023-04-15T06:33:42.634Z,64.16
2023-04-15T06:36:09.032Z,64.25
2023-04-15T06:38:35.535Z,64.91
2023-04-15T06:41:02.965Z,65.47
2023-04-15T06:43:29.728Z,65.62
2023-04-15T06:45:56.698Z,65.89
2023-04-15T06:48:23.273Z,66.44
2023-04-15T06:50:52.260Z,66.65
2023-04-15T06:53:18.757Z,66.73
2023-04-15T06:55:45.225Z,66.77
2023-04-15T06:58:11.771Z,66.85
2023-04-15T07:00:39.366Z,66.83
2023-04-15T07:03:05.981Z,66.64
2023-04-15T07:05:32.505Z,66.91
2023-04-15T07:07:58.856Z,66.95
2023-04-15T07:10:25.751Z,67.34
2023-04-15T07:12:52.627Z,67.14
2023-04-15T07:15:30.884Z,67.17
2023-04-15T07:17:57.510Z,66.94
2023-04-15T07:20:23.942Z,66.83
2023-04-15T07:22:52.909Z,67.02
2023-04-15T07:25:19.430Z,66.99
2023-04-15T07:27:45.987Z,67.21
2023-04-15T07:30:12.818Z,67.38
2023-04-15T07:32:39.347Z,67.37
2023-04-15T07:35:05.909Z,67.30
2023-04-15T07:37:32.477Z,67.20
2023-04-15T07:39:58.854Z,67.19
2023-04-15T07:42:25.569Z,67.25
2023-04-15T07:44:52.152Z,67.19
2023-04-15T07:47:18.591Z,67.27
2023-04-15T07:49:45.267Z,67.27
2023-04-15T07:52:11.684Z,67.29
2023-04-15T07:54:38.081Z,67.49
2023-04-15T07:57:04.469Z,67.35
2023-04-15T07:59:33.447Z,67.34
2023-04-15T08:02:00.255Z,67.26
2023-04-15T08:04:27.760Z,66.99
2023-04-15T08:06:54.819Z,66.90
2023-04-15T08:09:21.630Z,66.99
2023-04-15T08:11:51.288Z,66.96
2023-04-15T08:14:17.737Z,67.07
2023-04-15T08:16:44.207Z,67.07
2023-04-15T08:19:10.578Z,67.02
2023-04-15T08:21:37.207Z,67.06
2023-04-15T08:24:03.914Z,66.97
2023-04-15T08:26:30.297Z,67.02
2023-04-15T08:28:57.417Z,66.86
2023-04-15T08:31:23.963Z,66.87
2023-04-15T08:33:53.580Z,66.94
2023-04-15T08:36:19.961Z,66.61
2023-04-15T08:38:46.360Z,66.53
2023-04-15T08:41:17.432Z,66.30
2023-04-15T08:43:54.954Z,66.14
2023-04-15T08:46:23.214Z,66.08
2023-04-15T08:48:49.865Z,65.88
2023-04-15T08:51:17.063Z,66.05
2023-04-15T08:53:44.425Z,66.10
2023-04-15T08:56:10.807Z,66.13
2023-04-15T08:58:37.205Z,66.17
2023-04-15T09:01:03.791Z,65.94
2023-04-15T09:03:30.367Z,65.91
2023-04-15T09:05:57.429Z,65.74
2023-04-15T09:08:23.854Z,65.57
2023-04-15T09:10:50.421Z,65.28
2023-04-15T09:13:16.894Z,65.57
2023-04-15T09:15:44.017Z,65.39
2023-04-15T09:18:11.823Z,64.95
2023-04-15T09:20:44.026Z,64.92
2023-04-15T09:23:14.173Z,65.23
2023-04-15T09:25:42.569Z,65.48
2023-04-15T09:28:09.028Z,65.59
2023-04-15T09:30:35.479Z,65.67
2023-04-15T09:33:02.526Z,65.72
2023-04-15T09:35:29.109Z,65.70
2023-04-15T09:38:04.193Z,65.80
2023-04-15T09:40:34.468Z,65.59
2023-04-15T09:43:02.096Z,65.50
2023-04-15T09:45:29.669Z,65.42
2023-04-15T09:47:59.001Z,65.19
2023-04-15T09:50:29.584Z,65.08
2023-04-15T09:52:56.374Z,65.05
2023-04-15T09:55:22.836Z,64.73
2023-04-15T09:57:49.282Z,64.67
2023-04-15T10:00:15.934Z,64.65
2023-04-15T10:02:42.996Z,64.68
2023-04-15T10:05:11.032Z,64.92
2023-04-15T10:07:38.114Z,64.63
2023-04-15T10:10:05.407Z,65.03
2023-04-15T10:12:33.529Z,65.04
2023-04-15T10:15:00.960Z,65.29
2023-04-15T10:17:28.856Z,65.37
2023-04-15T10:19:57.971Z,65.31
2023-04-15T10:22:24.643Z,65.18
2023-04-15T10:24:51.325Z,65.00
2023-04-15T10:27:18.034Z,64.75
2023-04-15T10:29:44.494Z,64.72
2023-04-15T10:32:11.997Z,64.77
2023-04-15T10:34:38.456Z,64.93
2023-04-15T10:37:04.882Z,64.92
2023-04-15T10:39:34.509Z,64.68
2023-04-15T10:42:11.547Z,64.72
2023-04-15T10:44:38.910Z,64.42
2023-04-15T10:47:07.242Z,64.47
2023-04-15T10:49:33.658Z,64.15
2023-04-15T10:52:00.964Z,63.93
2023-04-15T10:54:27.366Z,63.71
2023-04-15T10:57:14.006Z,63.62
2023-04-15T10:59:58.900Z,63.63
2023-04-15T11:02:44.801Z,63.32
2023-04-15T11:05:11.758Z,63.05
2023-04-15T11:07:42.343Z,62.92
2023-04-15T11:10:17.988Z,62.96
2023-04-15T11:12:44.718Z,63.24
2023-04-15T11:15:32.577Z,63.20
2023-04-15T11:17:59.595Z,63.53
2023-04-15T11:20:26.267Z,63.68
2023-04-15T11:23:14.130Z,63.44
2023-04-15T11:25:41.733Z,63.36
2023-04-15T11:28:08.166Z,63.29
2023-04-15T11:30:35.739Z,63.28
2023-04-15T11:33:03.237Z,63.20
2023-04-15T11:35:30.342Z,62.95
2023-04-15T11:37:56.882Z,62.92
2023-04-15T11:40:24.587Z,63.02
2023-04-15T11:43:09.047Z,63.04
2023-04-15T11:45:36.530Z,63.32
2023-04-15T11:48:09.889Z,63.40
2023-04-15T11:50:36.833Z,63.41
2023-04-15T11:53:07.666Z,63.81
2023-04-15T11:55:42.025Z,64.08
2023-04-15T11:58:09.024Z,64.02
2023-04-15T12:00:35.813Z,64.11
2023-04-15T12:03:14.720Z,63.97
2023-04-15T12:05:59.998Z,63.77
2023-04-15T12:08:27.274Z,63.77
2023-04-15T12:10:58.977Z,63.63
2023-04-15T12:13:27.629Z,63.57
2023-04-15T12:15:55.741Z,63.76
2023-04-15T12:18:22.242Z,63.42
2023-04-15T12:20:50.066Z,63.38
2023-04-15T12:23:19.388Z,63.34
2023-04-15T12:25:51.954Z,63.49
2023-04-15T12:28:18.659Z,63.32
2023-04-15T12:30:54.125Z,63.59
2023-04-15T12:33:21.044Z,63.81
2023-04-15T12:35:47.410Z,63.84
2023-04-15T12:38:13.959Z,64.10
2023-04-15T12:40:40.734Z,63.95
2023-04-15T12:43:07.784Z,64.11
2023-04-15T12:45:34.212Z,64.08
2023-04-15T12:48:00.668Z,64.17
2023-04-15T12:50:27.122Z,63.96
2023-04-15T12:52:53.591Z,63.99
2023-04-15T12:55:19.988Z,64.28
2023-04-15T12:57:46.443Z,64.51
2023-04-15T13:00:13.287Z,64.12
2023-04-15T13:02:40.068Z,64.19
2023-04-15T13:05:06.899Z,64.23
2023-04-15T13:07:33.377Z,64.36
2023-04-15T13:09:59.739Z,64.68
2023-04-15T13:12:27.099Z,64.40
2023-04-15T13:14:53.595Z,64.51
2023-04-15T13:17:21.996Z,64.49
2023-04-15T13:19:48.587Z,64.23
2023-04-15T13:22:15.450Z,64.18
2023-04-15T13:24:41.918Z,64.22
2023-04-15T13:27:08.410Z,64.42
2023-04-15T13:29:34.832Z,64.51
2023-04-15T13:32:01.667Z,64.57
2023-04-15T13:34:28.130Z,64.72
2023-04-15T13:36:54.576Z,64.47
2023-04-15T13:39:21.264Z,64.51
2023-04-15T13:41:48.682Z,64.44
2023-04-15T13:44:15.142Z,64.29
2023-04-15T13:46:44.497Z,64.41
2023-04-15T13:49:11.120Z,64.56
2023-04-15T13:51:37.561Z,64.27
2023-04-15T13:54:04.237Z,64.31
2023-04-15T13:56:32.121Z,64.21
2023-04-15T13:59:02.256Z,64.16
2023-04-15T14:01:29.176Z,64.33
2023-04-15T14:03:55.839Z,64.30
2023-04-15T14:06:22.337Z,64.25
2023-04-15T14:08:48.753Z,64.32
2023-04-15T14:11:15.733Z,64.23
2023-04-15T14:13:42.116Z,64.23
2023-04-15T14:16:08.570Z,64.18
2023-04-15T14:18:34.984Z,64.26
2023-04-15T14:21:01.456Z,64.21
2023-04-15T14:23:27.911Z,64.23
2023-04-15T14:25:54.417Z,64.42
2023-04-15T14:28:20.833Z,64.29
2023-04-15T14:30:47.255Z,64.04
2023-04-15T14:33:13.825Z,64.10
2023-04-15T14:35:40.296Z,64.04
2023-04-15T14:38:10.555Z,64.06
2023-04-15T14:40:37.208Z,63.95
2023-04-15T14:43:03.639Z,63.92
2023-04-15T14:45:30.267Z,63.99
2023-04-15T14:47:56.913Z,63.81
2023-04-15T14:50:23.379Z,64.05
2023-04-15T14:52:49.783Z,64.05
2023-04-15T14:55:16.226Z,63.74
2023-04-15T14:57:42.739Z,63.91
2023-04-15T15:00:10.563Z,63.78
2023-04-15T15:02:40.243Z,63.96
2023-04-15T15:05:07.982Z,63.80
2023-04-15T15:07:36.057Z,63.96
2023-04-15T15:10:03.321Z,64.00
2023-04-15T15:12:29.850Z,63.80
2023-04-15T15:14:56.310Z,63.65
2023-04-15T15:17:22.720Z,63.74
2023-04-15T15:19:49.370Z,63.96
2023-04-15T15:22:19.580Z,64.18
2023-04-15T15:24:47.302Z,63.99
2023-04-15T15:27:13.796Z,64.26
2023-04-15T15:29:40.335Z,64.23
2023-04-15T15:32:06.875Z,64.07
2023-04-15T15:34:33.398Z,64.00
2023-04-15T15:37:00.803Z,64.04
2023-04-15T15:39:27.360Z,64.09
2023-04-15T15:41:53.792Z,64.07
2023-04-15T15:44:20.180Z,63.92
2023-04-15T15:46:46.631Z,63.99
2023-04-15T15:49:13.129Z,64.08
2023-04-15T15:51:40.031Z,64.04
2023-04-15T15:54:06.513Z,64.35
2023-04-15T15:56:33.285Z,64.43
2023-04-15T15:58:59.684Z,64.64
2023-04-15T16:01:26.088Z,64.77
2023-04-15T16:03:52.768Z,64.77
2023-04-15T16:06:19.388Z,64.84
2023-04-15T16:08:45.756Z,64.83
2023-04-15T16:11:12.144Z,65.11
2023-04-15T16:13:38.559Z,65.22
2023-04-15T16:16:05.150Z,65.32
2023-04-15T16:18:35.184Z,65.35
2023-04-15T16:21:01.804Z,65.40
2023-04-15T16:23:28.260Z,65.55
2023-04-15T16:25:54.780Z,65.86
2023-04-15T16:28:26.748Z,65.87
2023-04-15T16:30:53.882Z,65.91
2023-04-15T16:33:20.428Z,65.55
2023-04-15T16:35:46.866Z,65.54
2023-04-15T16:38:13.276Z,65.45
2023-04-15T16:40:39.621Z,65.21
2023-04-15T16:43:11.287Z,65.11
2023-04-15T16:45:37.833Z,64.88
2023-04-15T16:48:04.644Z,64.78
2023-04-15T16:50:31.551Z,64.58
2023-04-15T16:52:58.098Z,64.69
2023-04-15T16:55:27.536Z,64.69
2023-04-15T16:58:02.135Z,64.77
2023-04-15T17:00:31.141Z,64.89
2023-04-15T17:02:57.976Z,64.72
2023-04-15T17:05:24.929Z,64.59
2023-04-15T17:07:51.380Z,64.52
2023-04-15T17:10:17.842Z,64.32
2023-04-15T17:12:44.586Z,64.45
2023-04-15T17:15:11.216Z,64.26
2023-04-15T17:17:39.021Z,64.09
2023-04-15T17:20:06.066Z,63.95
2023-04-15T17:22:33.572Z,63.76
2023-04-15T17:25:00.270Z,63.69
2023-04-15T17:27:28.908Z,63.79
2023-04-15T17:29:55.615Z,63.49
2023-04-15T17:32:22.832Z,63.63
2023-04-15T17:34:51.417Z,63.41
2023-04-15T17:37:18.192Z,63.36
2023-04-15T17:39:44.670Z,63.40
2023-04-15T17:42:11.425Z,63.30
2023-04-15T17:44:37.838Z,63.37
2023-04-15T17:47:04.333Z,63.15
2023-04-15T17:49:31.363Z,63.29
2023-04-15T17:51:57.816Z,63.24
2023-04-15T17:54:24.304Z,63.04
2023-04-15T17:56:51.046Z,63.13
2023-04-15T17:59:17.664Z,63.03
2023-04-15T18:01:45.673Z,63.00
2023-04-15T18:04:12.448Z,62.93
2023-04-15T18:06:39.198Z,62.78
2023-04-15T18:09:06.217Z,62.81
2023-04-15T18:11:33.465Z,62.80
2023-04-15T18:14:00.223Z,62.84
2023-04-15T18:16:26.682Z,62.68
2023-04-15T18:18:53.742Z,62.89
2023-04-15T18:21:20.394Z,62.86
2023-04-15T18:23:46.805Z,62.94
2023-04-15T18:26:13.300Z,62.74
2023-04-15T18:28:39.946Z,62.91
2023-04-15T18:31:06.564Z,62.82
2023-04-15T18:33:33.137Z,62.86
2023-04-15T18:35:59.589Z,62.63
2023-04-15T18:38:26.072Z,62.66
2023-04-15T18:40:52.541Z,62.69
2023-04-15T18:43:19.048Z,62.80
2023-04-15T18:45:45.635Z,62.88
2023-04-15T18:48:12.498Z,62.97
2023-04-15T18:50:38.905Z,62.97
2023-04-15T18:53:05.271Z,62.91
2023-04-15T18:55:32.376Z,62.90
2023-04-15T18:58:06.392Z,62.85
2023-04-15T19:00:39.049Z,62.75
2023-04-15T19:03:06.358Z,62.83
2023-04-15T19:05:32.833Z,62.77
2023-04-15T19:07:59.761Z,62.69
2023-04-15T19:10:28.083Z,62.42
2023-04-15T19:12:54.991Z,62.65
2023-04-15T19:15:21.468Z,62.60
2023-04-15T19:17:47.923Z,62.54
2023-04-15T19:20:14.504Z,62.49
2023-04-15T19:22:41.680Z,62.51
2023-04-15T19:25:08.227Z,62.51
2023-04-15T19:27:35.076Z,62.43
2023-04-15T19:30:03.270Z,62.38
2023-04-15T19:32:32.236Z,62.38
2023-04-15T19:34:58.796Z,62.40
2023-04-15T19:37:25.335Z,62.42
2023-04-15T19:39:51.757Z,62.37
2023-04-15T19:42:18.249Z,62.47
2023-04-15T19:44:44.603Z,62.47
2023-04-15T19:47:11.095Z,62.41
2023-04-15T19:49:37.879Z,62.32
2023-04-15T19:52:04.392Z,62.30
2023-04-15T19:54:34.020Z,62.40
2023-04-15T19:57:02.070Z,62.28
2023-04-15T19:59:28.593Z,62.32
2023-04-15T20:01:56.557Z,62.22
2023-04-15T20:04:23.385Z,62.28
2023-04-15T20:06:50.004Z,62.56
2023-04-15T20:09:16.604Z,62.30
2023-04-15T20:12:45.956Z,62.33
2023-04-15T20:14:29.779Z,62.49
2023-04-15T20:16:56.234Z,62.57
2023-04-15T20:19:22.620Z,62.60
2023-04-15T20:21:50.870Z,62.85
2023-04-15T20:24:20.244Z,62.96
2023-04-15T20:26:46.779Z,63.09
2023-04-15T20:29:13.616Z,63.07
2023-04-15T20:31:40.167Z,63.04
2023-04-15T20:34:06.607Z,63.05
2023-04-15T20:36:33.381Z,62.97
2023-04-15T20:38:59.870Z,62.91
2023-04-15T20:41:26.366Z,62.94
2023-04-15T20:43:52.767Z,62.84
2023-04-15T20:46:21.387Z,62.82
2023-04-15T20:48:48.419Z,62.84
2023-04-15T20:51:15.471Z,62.88
2023-04-15T20:53:42.248Z,62.75
2023-04-15T20:56:08.720Z,62.78
2023-04-15T20:58:35.109Z,62.73
2023-04-15T21:01:02.188Z,62.74
2023-04-15T21:03:28.894Z,62.64
2023-04-15T21:05:55.761Z,62.38
2023-04-15T21:08:29.143Z,62.27
2023-04-15T21:10:58.394Z,62.18
2023-04-15T21:13:24.864Z,62.10
2023-04-15T21:15:53.947Z,61.96
2023-04-15T21:18:21.010Z,61.95
2023-04-15T21:20:47.582Z,61.86
2023-04-15T21:23:14.033Z,61.78
2023-04-15T21:25:40.595Z,61.72
2023-04-15T21:28:07.018Z,61.70
2023-04-15T21:30:33.480Z,61.71
2023-04-15T21:32:59.959Z,61.68
2023-04-15T21:35:27.100Z,61.76
2023-04-15T21:37:53.567Z,61.82
2023-04-15T21:40:20.140Z,61.85
2023-04-15T21:42:48.784Z,61.91
2023-04-15T21:45:15.582Z,62.02
2023-04-15T21:48:06.636Z,62.16
2023-04-15T21:50:28.593Z,62.00
2023-04-15T21:52:55.422Z,62.08
2023-04-15T21:55:21.943Z,61.97
2023-04-15T21:57:48.365Z,62.10
2023-04-15T22:00:15.484Z,62.18
2023-04-15T22:02:42.176Z,62.19
2023-04-15T22:05:08.651Z,62.24
2023-04-15T22:07:36.063Z,62.23
2023-04-15T22:10:02.531Z,62.17
2023-04-15T22:12:29.027Z,62.20
2023-04-15T22:14:56.864Z,62.23
2023-04-15T22:17:23.300Z,62.01
2023-04-15T22:19:49.696Z,62.15
2023-04-15T22:22:16.154Z,62.30
2023-04-15T22:24:44.725Z,62.36
2023-04-15T22:27:11.167Z,62.34
2023-04-15T22:29:37.608Z,62.37
2023-04-15T22:32:04.067Z,62.13
2023-04-15T22:34:30.538Z,62.15
2023-04-15T22:36:56.926Z,62.09
2023-04-15T22:39:24.684Z,62.02
2023-04-15T22:41:51.331Z,62.14
2023-04-15T22:44:18.031Z,62.07
2023-04-15T22:46:44.738Z,62.11
2023-04-15T22:49:11.157Z,62.13
2023-04-15T22:51:38.232Z,62.00
2023-04-15T22:54:04.654Z,61.97
2023-04-15T22:56:33.769Z,62.10
2023-04-15T22:59:00.202Z,62.00
2023-04-15T23:01:26.799Z,62.15
2023-04-15T23:03:55.920Z,62.09
2023-04-15T23:06:24.046Z,62.12
2023-04-15T23:08:50.926Z,62.07
2023-04-15T23:11:18.436Z,62.14
2023-04-15T23:13:44.836Z,62.01
2023-04-15T23:16:11.242Z,62.00
2023-04-15T23:18:37.780Z,61.98
2023-04-15T23:21:04.253Z,61.94
2023-04-15T23:23:31.186Z,62.02
2023-04-15T23:25:57.636Z,61.88
2023-04-15T23:28:24.063Z,61.93
2023-04-15T23:30:51.512Z,61.84
2023-04-15T23:33:17.923Z,61.76
2023-04-15T23:35:44.753Z,61.83
2023-04-15T23:38:11.460Z,61.77
2023-04-15T23:40:37.857Z,61.82
2023-04-15T23:43:04.344Z,61.78
2023-04-15T23:45:30.701Z,61.69
2023-04-15T23:47:57.365Z,61.66
2023-04-15T23:50:23.806Z,61.58
2023-04-15T23:52:50.308Z,61.51
2023-04-15T23:55:17.013Z,61.47
2023-04-15T23:57:43.419Z,61.34
